Hovedside
METAR-TAF:

METAR-TAF

Lufthavner :

Tahiti, Fransk Polynesia

Tahiti internasjonale lufthavn

breddegrad: 17-33S, lengdegrad: 149-37W, høyde over havet: 2 m

Gjeldene værobservasjon

Denne rapporten ble laget for 17 minutter siden, klokken 02:00 UTC
Vind 4 kt fra Vest-sørvest
Temperatur 32°C
Luftfuktighet 59%
Trykk 1009 hPa
Sikt 10 km eller mer
Få skyer i en høyde av 2300 ft
Spredte skyer i en høyde av 30000 ft

METAR: NTAA 220200Z 24004KT 9999 FEW023 SCT300 32/23 Q1009 WS ALL RWY NOSIG

Tid: 16:17 (02:17 UTC)

Varsel

Denne rapporten ble laget for 3 timer og 17 minutter siden, klokken 23:00 UTC
Varsel gyldig fra 22. klokken 00 UTC til 23. klokken 06 UTC
Vind 3 kt fra skiftende retning
Sikt 10 km eller mer
Få skyer i en høyde av 2000 ft
Spredte skyer i en høyde av 5000 ft
Sannsynlighet 40% :
Midlertidig
fra 22. klokken 00 UTC til 22. klokken 03 UTC
Vind 15 kt fra Nordøst med vindkast opp mot 25 kt

TAF: NTAA 212300Z 2200/2306 VRB03KT 9999 FEW020 SCT050 PROB40 TEMPO 2200/2203 05015G25KT

Værobservasjoner og værvarsel for over 4000 flyplasser (METAR- og TAF-rapporter).

Tilgjengelige stasjoner er representert av de røde og gule prikkene på kartet.

Hold musepekeren over prikken for å se navnet på stasjonen.

Klikk så for å se værobservasjoner og -varsler.

For å forandre kartet kan du klikke på den grønne knappen med svart kryss for å zoome inn, på den grønne knappen med strek for å zoome ut, eller på de grønne pilene for å se tilstøtende kart.


METAR-TAF: